Acorn Park, Oregon
Current Conditions -  °F | °C
As of 1:54 PM on Monday 22 Dec 2014 (Local Time) from KEUG Reporting Station
Broken Clouds Broken Clouds  
Wind Chill: 57°   Ceiling: 2600
Heat Index: 57°   Visibility: 10mi
Dew Point: 50°   Wind: 5mph
Humidity: 77%   Direction: 360°N
Pressure: 30.35"   Gusts: NA
Location:  44.0318°N, 123.235°W
Report Text: KEUG 222154Z 36004KT 10SM FEW013 BKN026 BKN100 14/10 A3035 RMK AO2 SLP276 T01390100
Loading
Personal Weather Stations






























Interactive Weather Map New forecast layout! Learn more

10-Day Weather Forecast

Advertisements
Track Severe Weather on mobile